GCXOGCGM

Guest
Details From GCXO - Tenerife Norte - Los Rodeos
To GCGM - La Gomera
Flight Number -
Tags generated
Created
Modified
Stats Distance 62 nm / 115 km
Max Altitude 5,900 ft / 1,798 m
Waypoints 3
Social Downloads 2
Likes 0
Share VATSIM

Download

Looking for another format? Having issues loading an existing format? Contact us
Advertisement - Login to hide

Notes

Basic altitude profile: - Ascent Rate: 2500ft/min - Ascent Speed: 250kts - Cruise Altitude: 1000ft - Cruise Speed: 420kts - Descent Rate: 1500ft/min - Descent Speed: 250kts Options: - Use NATs: yes - Use PACOTS: yes - Use low airways: yes - Use high airways: no

Route

GCXO TFS GCGM

ID Type Via Altitude Latitude Longitude Leg Dist Tot Dist Heading (true) Name
O GCXO APT - 0 ft / 0 m 28.48266˚ -16.34154˚ - 0 nm - Tenerife Norte - Los Rodeos
TFS VOR - 5,900 ft / 1,798 m 28.00245˚ -16.68793˚ 34 nm 34 nm 213° / 212° TENERIFE SUR VOR-DME
O GCGM APT - 0 ft / 0 m 28.02963˚ -17.21460˚ 27 nm 62 nm 273° / 273° La Gomera

Altitude Profile

Advertisement - Login to hide

GCXO

Details ICAO GCXO (TFN)
Name Tenerife Norte - Los Rodeos
Region Canary Islands
Timezone Atlantic/Canary (UTC+0.0)
Stats Elevation 2,076 ft / 633 m (AMSL)
Location 28.482656° -16.341541°
Runways 1
Magnetic Variation 5.004° W

METAR

GCXO 110530Z AUTO 28015KT 9999 FEW025/// 15/12 Q1022

Decode

TAF

TAF GCXO 110200Z 1103/1203 31010KT 9999 SCT010 TX17/1113Z TN13/1106Z PROB30 TEMPO 1103/1111 3000 BCFG BKN005 BECMG 1110/1112 30020KT TEMPO 1111/1120 30020G34KT PROB40 TEMPO 1119/1123 3000 RA BKN005

Decode

Departure Runways

ID Width Length Bearing (true) Bearing (mag) Surface Threshold Offset Overrun Length
12 148 ft / 45 m 11,165 ft / 3,403 m 110.67° 115.67° Asphalt 0 ft / 0 m 197 ft / 60 m
30 148 ft / 45 m 11,165 ft / 3,403 m 290.69° 295.69° Asphalt 0 ft / 0 m 197 ft / 60 m

GCGM

Details ICAO GCGM (GMZ)
Name La Gomera
Region Canary Islands
Timezone Atlantic/Canary (UTC+0.0)
Stats Elevation 715 ft / 218 m (AMSL)
Location 28.029627° -17.214603°
Runways 1
Magnetic Variation 5.360° W

METAR

GCGM 110530Z AUTO VRB01KT 9999 NCD 16/13 Q1021 RMK R09/VRB02KT ARP/VRB02KT

Decode

TAF

TAF GCGM 110200Z 1103/1203 26006KT 9999 FEW025 TX23/1113Z TN17/1106Z PROB30 TEMPO 1119/1203 3000 RA BKN014

Decode

Destination Runways

ID Width Length Bearing (true) Bearing (mag) Surface Threshold Offset Overrun Length
09 98 ft / 30 m 4,914 ft / 1,498 m 81.17° 86.53° Asphalt 0 ft / 0 m 0 ft / 0 m
27 98 ft / 30 m 4,914 ft / 1,498 m 261.18° 266.54° Asphalt 0 ft / 0 m 0 ft / 0 m

Popular Alternatives